Time;durP1;ratioP1;P1;durP2;ratioP2;P2;SDS_P1;SDS_P2;PMS_P1;PMS_P2;Temp;Humidity;BMP_temperature;BMP_pressure;BME280_temperature;BME280_humidity;BME280_pressure;Samples;Min_cycle;Max_cycle;Signal;HPM_P1;HPM_P2
2023/12/21 00:01:36;;;;;;;53.10;22.42;;;;;;;1.06;85.30;93330.09;5064661;28;20017;-80
2023/12/21 00:04:03;;;;;;;51.05;22.05;;;;;;;1.14;84.49;93332.16;5063154;28;20029;-80
2023/12/21 00:06:29;;;;;;;55.60;22.40;;;;;;;1.15;83.84;93331.13;5063237;28;20021;-80
2023/12/21 00:08:54;;;;;;;56.13;23.70;;;;;;;1.19;83.27;93330.31;5062957;28;20036;-80
2023/12/21 00:11:20;;;;;;;65.50;25.50;;;;;;;1.28;82.80;93325.31;5063491;28;20033;-80
2023/12/21 00:13:45;;;;;;;60.00;24.42;;;;;;;1.32;82.51;93320.31;5062841;28;20036;-81
2023/12/21 00:16:10;;;;;;;53.90;22.95;;;;;;;1.35;82.36;93323.19;5062584;28;20020;-81
2023/12/21 00:18:36;;;;;;;47.05;21.42;;;;;;;1.34;82.03;93332.13;5061617;28;20071;-81
2023/12/21 00:21:02;;;;;;;45.88;19.83;;;;;;;1.36;82.26;93337.91;5062714;28;20086;-81
2023/12/21 00:23:27;;;;;;;43.75;19.17;;;;;;;1.43;82.20;93323.69;5061266;28;20013;-81
2023/12/21 00:25:53;;;;;;;45.17;19.73;;;;;;;1.48;82.08;93328.91;5062636;28;20376;-81
2023/12/21 00:28:18;;;;;;;41.92;19.13;;;;;;;1.49;81.84;93331.28;5062679;28;20084;-81
2023/12/21 00:30:43;;;;;;;46.42;18.73;;;;;;;1.52;81.58;93328.09;5062348;28;20013;-80
2023/12/21 00:33:09;;;;;;;43.45;16.95;;;;;;;1.55;81.26;93330.22;5062314;28;20021;-81
2023/12/21 00:35:34;;;;;;;42.17;17.15;;;;;;;1.56;81.47;93336.25;5062321;28;20090;-79
2023/12/21 00:38:00;;;;;;;33.33;15.10;;;;;;;1.56;81.75;93344.13;5062292;28;20025;-79
2023/12/21 00:40:26;;;;;;;38.50;16.05;;;;;;;1.56;81.50;93346.75;5061169;28;20017;-80
2023/12/21 00:42:51;;;;;;;35.53;15.48;;;;;;;1.59;82.31;93354.88;5062653;28;20035;-80
2023/12/21 00:45:16;;;;;;;33.47;15.20;;;;;;;1.67;81.74;93353.53;5065256;28;20092;-81
2023/12/21 00:47:42;;;;;;;42.70;15.60;;;;;;;1.68;81.57;93368.22;5066001;28;20024;-80
2023/12/21 00:50:08;;;;;;;30.23;12.57;;;;;;;1.76;81.75;93370.31;5066124;28;20231;-80
2023/12/21 00:52:33;;;;;;;31.13;13.05;;;;;;;1.85;81.80;93375.00;5065888;28;20354;-80
2023/12/21 00:54:58;;;;;;;21.00;10.13;;;;;;;1.90;81.42;93373.13;5066051;28;20088;-80
2023/12/21 00:57:24;;;;;;;29.63;11.18;;;;;;;1.82;81.56;93365.03;5065857;28;20040;-81
2023/12/21 00:59:49;;;;;;;26.02;11.75;;;;;;;1.91;81.63;93363.41;5065976;28;20211;-80
2023/12/21 01:02:14;;;;;;;33.10;11.98;;;;;;;1.93;81.93;93366.53;5065912;28;20028;-81
2023/12/21 01:04:47;;;;;;;26.35;13.15;;;;;;;1.97;82.07;93363.13;5064760;28;20283;-80
2023/12/21 01:07:12;;;;;;;;;;;;;;;2.03;81.74;93353.34;5066301;28;20036;-81
2023/12/21 01:09:38;;;;;;;27.65;12.48;;;;;;;2.06;81.54;93359.91;5065612;28;20080;-80
2023/12/21 01:12:07;;;;;;;25.73;12.43;;;;;;;2.05;81.66;93366.22;5065480;28;20201;-80
2023/12/21 01:14:33;;;;;;;33.22;14.23;;;;;;;1.89;82.19;93357.63;5065627;28;20399;-80
2023/12/21 01:16:59;;;;;;;34.30;15.27;;;;;;;1.88;82.16;93359.47;5065492;28;20021;-80
2023/12/21 01:19:26;;;;;;;29.98;15.00;;;;;;;1.88;82.50;93356.06;5064089;28;20025;-80
2023/12/21 01:21:51;;;;;;;36.47;16.10;;;;;;;1.96;82.41;93355.50;5065416;28;20306;-78
2023/12/21 01:24:16;;;;;;;36.95;17.50;;;;;;;2.02;82.03;93354.41;5065332;28;20084;-78
2023/12/21 01:26:42;;;;;;;39.25;18.52;;;;;;;2.05;81.34;93347.81;5064115;28;20059;-79
2023/12/21 01:29:07;;;;;;;43.35;20.75;;;;;;;2.00;81.22;93349.41;5065238;28;20283;-78
2023/12/21 01:31:33;;;;;;;38.08;20.00;;;;;;;2.01;81.54;93365.97;5063948;28;20028;-79
2023/12/21 01:33:59;;;;;;;39.17;19.60;;;;;;;1.95;81.78;93349.44;5065203;28;20261;-79
2023/12/21 01:36:26;;;;;;;39.33;18.85;;;;;;;1.98;81.68;93358.66;5065135;28;20024;-79
2023/12/21 01:38:52;;;;;;;36.95;20.08;;;;;;;1.98;81.46;93338.41;5065105;28;20021;-80
2023/12/21 01:41:17;;;;;;;34.90;17.25;;;;;;;2.00;81.28;93346.78;5065107;28;20021;-80
2023/12/21 01:43:43;;;;;;;40.00;16.75;;;;;;;2.02;80.91;93348.38;5065048;28;20089;-80
2023/12/21 01:46:09;;;;;;;40.95;16.88;;;;;;;1.93;81.01;93346.28;5065165;28;20067;-81
2023/12/21 01:48:36;;;;;;;34.03;16.48;;;;;;;1.92;81.04;93336.06;5064925;28;20330;-81
2023/12/21 01:51:02;;;;;;;44.08;18.67;;;;;;;1.89;81.45;93347.91;5064948;28;20267;-81
2023/12/21 01:53:28;;;;;;;38.50;16.77;;;;;;;1.88;81.05;93338.44;5065032;28;20074;-81
2023/12/21 01:55:55;;;;;;;38.08;18.52;;;;;;;1.89;81.27;93328.72;5064664;28;20035;-81
2023/12/21 01:58:20;;;;;;;38.88;18.05;;;;;;;1.85;80.75;93323.22;5064778;28;20041;-81
2023/12/21 02:00:46;;;;;;;42.75;20.20;;;;;;;1.80;81.13;93320.63;5064679;28;20071;-81
2023/12/21 02:03:11;;;;;;;37.70;18.67;;;;;;;1.72;81.43;93329.06;5064720;28;20036;-81
2023/12/21 02:05:37;;;;;;;40.53;18.48;;;;;;;1.70;82.50;93320.69;5064799;28;20059;-81
2023/12/21 02:08:02;;;;;;;35.00;16.58;;;;;;;1.73;83.37;93310.41;5064700;28;20312;-81
2023/12/21 02:10:28;;;;;;;41.28;20.75;;;;;;;1.77;83.38;93329.03;5064518;28;20035;-80
2023/12/21 02:12:53;;;;;;;47.88;23.42;;;;;;;1.79;82.65;93314.59;5064235;28;20032;-81
2023/12/21 02:15:19;;;;;;;52.22;23.92;;;;;;;1.85;82.45;93322.44;5064707;28;20311;-80
2023/12/21 02:17:47;;;;;;;56.08;23.58;;;;;;;1.82;82.49;93328.25;5064586;28;20338;-80
2023/12/21 02:20:14;;;;;;;64.65;25.05;;;;;;;1.87;82.02;93336.09;5065162;28;20037;-81
2023/12/21 02:22:41;;;;;;;53.42;25.48;;;;;;;1.82;81.75;93338.75;5063218;28;20311;-80
2023/12/21 02:25:07;;;;;;;46.55;24.52;;;;;;;1.82;81.59;93338.75;5063130;28;20267;-79
2023/12/21 02:27:33;;;;;;;57.47;27.15;;;;;;;1.83;81.84;93341.09;5064275;28;20055;-80
2023/12/21 02:29:58;;;;;;;53.28;26.70;;;;;;;1.81;81.70;93348.47;5064329;28;20074;-80
2023/12/21 02:32:24;;;;;;;59.65;25.02;;;;;;;1.84;81.63;93344.53;5063950;28;20033;-80
2023/12/21 02:34:49;;;;;;;56.35;27.35;;;;;;;1.80;81.66;93350.31;5063142;28;20338;-80
2023/12/21 02:37:14;;;;;;;54.47;25.55;;;;;;;1.85;81.57;93352.13;5064163;28;20025;-80
2023/12/21 02:39:40;;;;;;;56.15;26.50;;;;;;;1.88;81.52;93356.06;5063934;28;20417;-79
2023/12/21 02:42:05;;;;;;;54.85;26.35;;;;;;;1.85;81.96;93351.34;5063788;28;20048;-80
2023/12/21 02:44:31;;;;;;;54.95;25.40;;;;;;;1.86;81.61;93347.66;5063933;28;20028;-80
2023/12/21 02:46:58;;;;;;;59.50;26.20;;;;;;;1.85;81.70;93353.97;5064000;28;20326;-79
2023/12/21 02:49:23;;;;;;;53.85;25.02;;;;;;;1.85;81.82;93349.50;5062836;28;20250;-80
2023/12/21 02:51:49;;;;;;;47.20;23.77;;;;;;;1.87;81.62;93357.88;5063738;28;20029;-80
2023/12/21 02:54:14;;;;;;;49.33;24.40;;;;;;;1.88;81.64;93348.19;5063739;28;20222;-80
2023/12/21 02:56:41;;;;;;;51.33;22.90;;;;;;;1.82;81.76;93351.91;5063519;28;20180;-80
2023/12/21 02:59:06;;;;;;;55.70;24.55;;;;;;;1.84;81.99;93341.91;5063653;28;20074;-79
2023/12/21 03:01:31;;;;;;;44.63;21.70;;;;;;;1.86;82.01;93355.56;5063727;28;20028;-80
2023/12/21 03:03:59;;;;;;;47.30;24.25;;;;;;;1.80;82.14;93342.44;5063339;28;20048;-80
2023/12/21 03:06:25;;;;;;;52.35;23.67;;;;;;;1.87;82.20;93336.09;5062844;28;20051;-79
2023/12/21 03:08:50;;;;;;;47.53;21.88;;;;;;;1.87;82.09;93346.59;5063635;28;20020;-80
2023/12/21 03:11:16;;;;;;;43.67;21.05;;;;;;;1.87;82.01;93339.50;5061998;28;20060;-80
2023/12/21 03:13:41;;;;;;;45.70;20.65;;;;;;;1.85;82.09;93340.81;5063278;28;20307;-77
2023/12/21 03:16:06;;;;;;;44.63;20.42;;;;;;;1.84;82.37;93345.31;5063587;28;20196;-78
2023/12/21 03:18:32;;;;;;;44.63;20.63;;;;;;;1.88;82.53;93354.22;5063288;28;20100;-78
2023/12/21 03:20:58;;;;;;;48.25;22.50;;;;;;;1.87;82.49;93354.47;5063523;28;20021;-77
2023/12/21 03:23:23;;;;;;;45.08;21.55;;;;;;;1.90;82.35;93360.00;5063455;28;20104;-78
2023/12/21 03:25:49;;;;;;;43.60;21.30;;;;;;;1.87;82.42;93351.84;5063222;28;20032;-79
2023/12/21 03:28:14;;;;;;;48.70;22.55;;;;;;;1.83;82.00;93354.22;5063158;28;20215;-78
2023/12/21 03:30:40;;;;;;;33.97;16.75;;;;;;;1.78;82.40;93357.69;5062007;28;20067;-78
2023/12/21 03:33:05;;;;;;;30.73;15.25;;;;;;;1.75;83.14;93366.13;5063149;28;20020;-80
2023/12/21 03:35:31;;;;;;;22.63;11.77;;;;;;;1.84;84.38;93373.44;5061865;28;20122;-80
2023/12/21 03:37:56;;;;;;;18.42;9.25;;;;;;;1.83;84.45;93361.34;5061990;28;20063;-79
2023/12/21 03:40:22;;;;;;;18.98;9.38;;;;;;;1.80;84.63;93354.78;5063092;28;20017;-80
2023/12/21 03:42:51;;;;;;;18.45;9.27;;;;;;;1.82;84.55;93360.56;5063071;28;20013;-79
2023/12/21 03:45:20;;;;;;;15.60;8.10;;;;;;;1.78;84.51;93362.94;5062988;28;20013;-79
2023/12/21 03:47:45;;;;;;;21.33;9.90;;;;;;;1.76;84.65;93362.41;5063500;28;20024;-78
2023/12/21 03:50:11;;;;;;;17.40;8.88;;;;;;;1.81;84.61;93369.47;5063468;28;20044;-79
2023/12/21 03:52:37;;;;;;;17.55;9.13;;;;;;;1.77;84.91;93361.38;5063223;28;20017;-80
2023/12/21 03:55:05;;;;;;;18.35;8.98;;;;;;;1.79;85.01;93350.56;5063272;28;20028;-79
2023/12/21 03:57:31;;;;;;;17.95;9.70;;;;;;;1.79;84.96;93372.41;5063370;28;20044;-79
2023/12/21 03:59:56;;;;;;;16.83;8.85;;;;;;;1.74;85.19;93376.88;5062885;28;20227;-80
2023/12/21 04:02:21;;;;;;;15.10;7.85;;;;;;;1.80;84.86;93362.66;5063350;28;20036;-80
2023/12/21 04:04:47;;;;;;;15.70;8.38;;;;;;;1.82;84.52;93367.66;5063105;28;20025;-80
2023/12/21 04:07:12;;;;;;;16.48;7.75;;;;;;;1.82;84.60;93362.41;5063069;28;20084;-79
2023/12/21 04:09:38;;;;;;;16.58;9.07;;;;;;;1.81;84.37;93358.97;5062692;28;20315;-78
2023/12/21 04:12:04;;;;;;;16.85;7.45;;;;;;;1.80;84.44;93373.19;5063225;28;20055;-78
2023/12/21 04:14:30;;;;;;;18.58;7.70;;;;;;;1.79;84.49;93361.91;5062880;28;20033;-78
2023/12/21 04:16:55;;;;;;;15.32;8.45;;;;;;;1.73;84.39;93373.47;5063204;28;20219;-79
2023/12/21 04:19:20;;;;;;;12.90;6.63;;;;;;;1.74;83.91;93364.53;5066599;28;20092;-78
2023/12/21 04:21:46;;;;;;;13.18;6.95;;;;;;;1.83;84.08;93356.09;5066020;28;20036;-79
2023/12/21 04:24:11;;;;;;;16.48;8.63;;;;;;;1.84;83.95;93361.06;5066797;28;20112;-78
2023/12/21 04:26:37;;;;;;;14.60;7.68;;;;;;;1.84;83.89;93363.69;5065920;28;20032;-77
2023/12/21 04:29:02;;;;;;;18.02;9.23;;;;;;;1.77;84.11;93364.00;5065910;28;20386;-78
2023/12/21 04:31:28;;;;;;;13.15;8.15;;;;;;;1.80;83.87;93363.44;5066817;28;20032;-79
2023/12/21 04:33:53;;;;;;;14.77;7.43;;;;;;;1.77;83.56;93379.78;5067052;28;20028;-78
2023/12/21 04:36:19;;;;;;;12.85;7.38;;;;;;;1.82;83.28;93365.03;5066957;28;20272;-79
2023/12/21 04:38:45;;;;;;;14.90;7.35;;;;;;;1.78;83.63;93376.06;5066781;28;20035;-79
2023/12/21 04:41:10;;;;;;;15.10;7.18;;;;;;;1.80;83.19;93366.06;5067042;28;20032;-79
2023/12/21 04:43:36;;;;;;;15.27;7.30;;;;;;;1.84;82.80;93395.22;5066793;28;20312;-79
2023/12/21 04:46:02;;;;;;;12.40;6.63;;;;;;;1.88;82.96;93382.34;5066821;28;20017;-79
2023/12/21 04:48:27;;;;;;;14.63;7.60;;;;;;;1.87;83.03;93375.50;5066773;28;20017;-78
2023/12/21 04:50:52;;;;;;;14.68;7.25;;;;;;;1.85;83.12;93388.91;5066883;28;20021;-78
2023/12/21 04:53:18;;;;;;;12.52;7.15;;;;;;;1.84;83.01;93395.22;5067767;28;20088;-79
2023/12/21 04:55:43;;;;;;;18.05;7.57;;;;;;;1.84;82.99;93384.72;5068118;28;20017;-78
2023/12/21 04:58:09;;;;;;;18.35;8.10;;;;;;;1.85;83.14;93380.25;5069858;28;20033;-78
2023/12/21 05:00:34;;;;;;;15.73;7.90;;;;;;;1.86;82.48;93389.72;5070583;28;20024;-78
2023/12/21 05:02:59;;;;;;;15.07;8.07;;;;;;;1.78;82.45;93397.09;5071286;28;20012;-79
2023/12/21 05:05:25;;;;;;;17.02;8.50;;;;;;;1.84;82.44;93381.31;5071875;28;20214;-79
2023/12/21 05:07:50;;;;;;;12.98;6.95;;;;;;;1.84;82.21;93378.69;5073564;28;20060;-79
2023/12/21 05:10:22;;;;;;;15.60;7.95;;;;;;;1.79;82.51;93388.16;5076600;28;20070;-79
2023/12/21 05:12:47;;;;;;;18.23;7.10;;;;;;;1.71;82.65;93383.47;5074570;28;20024;-80
2023/12/21 05:15:13;;;;;;;13.82;7.30;;;;;;;1.73;82.40;93402.38;5072365;28;20028;-80
2023/12/21 05:17:38;;;;;;;11.68;6.05;;;;;;;1.70;82.39;93397.66;5071029;28;20017;-81
2023/12/21 05:20:04;;;;;;;13.43;7.47;;;;;;;1.72;82.57;93390.28;5068628;28;20013;-78
2023/12/21 05:22:30;;;;;;;13.48;6.35;;;;;;;1.73;82.33;93391.06;5071303;28;20013;-78
2023/12/21 05:24:56;;;;;;;13.32;6.75;;;;;;;1.75;82.35;93400.28;5075032;28;20024;-80
2023/12/21 05:27:21;;;;;;;12.38;7.18;;;;;;;1.80;81.90;93397.59;5070818;28;20017;-79
2023/12/21 05:29:46;;;;;;;16.80;6.07;;;;;;;1.71;82.26;93404.50;5069809;28;20647;-78
2023/12/21 05:32:12;;;;;;;13.80;7.50;;;;;;;1.76;82.01;93403.69;5071666;28;20084;-79
2023/12/21 05:34:37;;;;;;;16.92;7.72;;;;;;;1.76;81.73;93401.06;5072282;28;20025;-78
2023/12/21 05:37:03;;;;;;;15.35;7.97;;;;;;;1.80;81.63;93404.72;5072531;28;20021;-78
2023/12/21 05:39:29;;;;;;;12.13;6.70;;;;;;;1.74;81.26;93398.69;5071402;28;20016;-79
2023/12/21 05:41:54;;;;;;;16.23;6.93;;;;;;;1.75;80.76;93383.69;5069725;28;20039;-79
2023/12/21 05:44:20;;;;;;;15.10;7.15;;;;;;;1.73;80.73;93389.25;5070607;28;20029;-80
2023/12/21 05:46:45;;;;;;;14.20;6.78;;;;;;;1.73;80.69;93388.44;5071615;28;20361;-79
2023/12/21 05:49:10;;;;;;;14.88;7.07;;;;;;;1.74;80.87;93388.19;5074388;28;20028;-80
2023/12/21 05:51:36;;;;;;;14.88;6.90;;;;;;;1.70;80.73;93375.84;5074240;28;20020;-83
2023/12/21 05:54:03;;;;;;;19.08;6.25;;;;;;;1.66;80.17;93372.19;5072769;28;20024;-79
2023/12/21 05:56:29;;;;;;;13.07;6.57;;;;;;;1.65;80.49;93379.28;5072762;28;20063;-79
2023/12/21 05:58:54;;;;;;;12.23;5.68;;;;;;;1.66;80.13;93380.84;5071635;28;20036;-80
2023/12/21 06:01:20;;;;;;;16.70;7.63;;;;;;;1.68;80.14;93378.75;5076678;28;20060;-82
2023/12/21 06:03:45;;;;;;;13.50;6.28;;;;;;;1.80;80.07;93373.97;5077445;28;20036;-83
2023/12/21 06:06:13;;;;;;;13.90;7.22;;;;;;;1.81;80.22;93380.00;5076702;28;20028;-81
2023/12/21 06:08:38;;;;;;;13.82;6.93;;;;;;;1.83;79.81;93377.09;5075951;28;20017;-81
2023/12/21 06:11:03;;;;;;;16.15;7.47;;;;;;;1.80;79.46;93386.31;5075221;28;20028;-79
2023/12/21 06:13:29;;;;;;;15.52;7.78;;;;;;;1.78;79.87;93404.19;5074117;28;20029;-79
2023/12/21 06:15:55;;;;;;;18.88;8.55;;;;;;;1.76;80.11;93390.53;5073848;28;20021;-79
2023/12/21 06:18:20;;;;;;;12.82;7.32;;;;;;;1.85;80.09;93386.28;5075733;28;20021;-79
2023/12/21 06:20:46;;;;;;;15.68;8.85;;;;;;;1.90;79.87;93382.88;5068990;28;20024;-79
2023/12/21 06:23:11;;;;;;;18.17;7.35;;;;;;;1.91;79.41;93382.56;5070913;28;20031;-81
2023/12/21 06:25:36;;;;;;;16.88;8.55;;;;;;;1.89;80.25;93381.28;5068539;28;20032;-80
2023/12/21 06:28:02;;;;;;;17.00;9.23;;;;;;;1.91;79.67;93374.69;5068394;28;20052;-81
2023/12/21 06:30:28;;;;;;;13.95;6.95;;;;;;;1.91;79.62;93379.94;5068522;28;20021;-80
2023/12/21 06:32:53;;;;;;;20.17;8.30;;;;;;;1.92;80.08;93386.00;5066943;28;20402;-79
2023/12/21 06:35:19;;;;;;;16.23;7.13;;;;;;;1.93;79.20;93385.72;5065570;28;20024;-79
2023/12/21 06:37:44;;;;;;;17.58;8.40;;;;;;;1.94;78.90;93379.41;5065170;28;20025;-79
2023/12/21 06:40:10;;;;;;;16.42;9.80;;;;;;;1.95;78.89;93380.97;5067277;28;20096;-84
2023/12/21 06:42:36;;;;;;;14.85;8.02;;;;;;;1.99;79.31;93386.50;5068364;28;20013;-84
2023/12/21 06:45:01;;;;;;;14.95;8.30;;;;;;;2.09;81.68;93390.91;5064329;28;20028;-90
2023/12/21 06:47:26;;;;;;;16.85;9.00;;;;;;;2.10;79.31;93397.75;5067039;28;20342;-89
2023/12/21 06:49:52;;;;;;;17.80;8.68;;;;;;;2.17;79.31;93392.97;5066384;28;20176;-90
2023/12/21 06:52:21;;;;;;;15.88;8.32;;;;;;;2.28;78.61;93404.22;5071993;28;20025;-88
2023/12/21 06:54:50;;;;;;;13.95;7.22;;;;;;;2.32;78.23;93398.16;5075963;28;20016;-88
2023/12/21 06:57:16;;;;;;;19.42;8.73;;;;;;;2.30;78.52;93392.38;5073650;28;20049;-89
2023/12/21 06:59:41;;;;;;;15.90;8.25;;;;;;;2.32;79.20;93394.72;5069032;28;20088;-89
2023/12/21 07:02:08;;;;;;;15.35;7.47;;;;;;;2.29;79.17;93400.53;5069451;28;20017;-89
2023/12/21 07:04:34;;;;;;;15.73;8.27;;;;;;;2.36;79.23;93393.91;5068395;28;20024;-89
2023/12/21 07:06:59;;;;;;;23.05;8.95;;;;;;;2.36;79.05;93385.22;5068175;28;20070;-89
2023/12/21 07:09:25;;;;;;;16.90;9.75;;;;;;;2.39;78.79;93396.00;5068198;28;20040;-89
2023/12/21 07:11:50;;;;;;;15.52;7.85;;;;;;;2.38;78.77;93401.50;5067822;28;20025;-89
2023/12/21 07:14:15;;;;;;;17.27;9.68;;;;;;;2.38;78.41;93410.22;5066245;28;20044;-89
2023/12/21 07:16:41;;;;;;;13.88;6.65;;;;;;;2.34;76.29;93403.94;5066890;28;20040;-89
2023/12/21 07:19:06;;;;;;;14.85;7.75;;;;;;;2.45;76.91;93399.38;5067804;28;20028;-88
2023/12/21 07:21:32;;;;;;;18.45;8.48;;;;;;;2.42;77.54;93394.66;5069658;28;20049;-88
2023/12/21 07:23:57;;;;;;;19.25;8.13;;;;;;;2.45;77.56;93399.38;5072986;28;20048;-88
2023/12/21 07:26:23;;;;;;;20.92;8.88;;;;;;;2.49;77.75;93402.25;5073894;28;20050;-88
2023/12/21 07:28:49;;;;;;;18.27;8.40;;;;;;;2.46;77.11;93408.81;5074540;28;20017;-88
2023/12/21 07:31:15;;;;;;;16.48;8.98;;;;;;;2.52;76.74;93404.31;5073645;28;20017;-88
2023/12/21 07:33:42;;;;;;;19.67;8.65;;;;;;;2.51;76.71;93403.56;5073186;28;20108;-88
2023/12/21 07:36:07;;;;;;;19.25;8.85;;;;;;;2.55;76.91;93388.78;5070418;28;20025;-87
2023/12/21 07:38:33;;;;;;;19.40;7.60;;;;;;;2.60;76.10;93404.53;5070104;28;20311;-88
2023/12/21 07:40:59;;;;;;;11.65;6.63;;;;;;;2.63;75.37;93391.91;5070482;28;20016;-88
2023/12/21 07:43:24;;;;;;;17.98;7.50;;;;;;;2.71;75.61;93396.59;5070937;28;20013;-87
2023/12/21 07:45:50;;;;;;;15.52;8.15;;;;;;;2.75;74.97;93413.41;5070798;28;20021;-86
2023/12/21 07:48:16;;;;;;;18.48;6.97;;;;;;;2.77;74.62;93406.78;5070787;28;20044;-88
2023/12/21 07:50:41;;;;;;;14.98;7.18;;;;;;;2.82;74.33;93419.13;5069501;28;20024;-88
2023/12/21 07:53:07;;;;;;;11.20;6.45;;;;;;;2.85;73.11;93413.31;5068718;28;20028;-88
2023/12/21 07:55:34;;;;;;;11.68;5.95;;;;;;;2.87;70.74;93429.63;5068635;28;20040;-88
2023/12/21 07:58:00;;;;;;;8.90;4.93;;;;;;;2.78;69.14;93420.72;5068121;28;20032;-88
2023/12/21 08:00:26;;;;;;;8.68;4.70;;;;;;;2.80;69.29;93437.03;5069855;28;20017;-89
2023/12/21 08:02:52;;;;;;;8.40;4.65;;;;;;;2.78;68.90;93439.16;5070278;28;20025;-89
2023/12/21 08:05:18;;;;;;;10.30;4.78;;;;;;;2.71;69.43;93436.06;5071939;28;20422;-89
2023/12/21 08:07:43;;;;;;;10.73;4.70;;;;;;;2.69;69.83;93425.78;5068758;28;20051;-89
2023/12/21 08:10:09;;;;;;;9.20;4.47;;;;;;;2.68;70.52;93431.31;5064941;28;20302;-89
2023/12/21 08:12:35;;;;;;;10.00;5.25;;;;;;;2.75;70.97;93418.66;5067273;28;20020;-89
2023/12/21 08:15:01;;;;;;;14.65;5.90;;;;;;;2.68;71.23;93413.69;5066574;28;20023;-89
2023/12/21 08:17:27;;;;;;;10.38;5.30;;;;;;;2.66;71.65;93420.28;5068532;28;20013;-89
2023/12/21 08:19:52;;;;;;;17.92;7.60;;;;;;;2.61;72.82;93419.25;5067980;28;20013;-89
2023/12/21 08:22:17;;;;;;;15.52;7.60;;;;;;;2.69;73.04;93422.38;5068212;28;20013;-89
2023/12/21 08:24:43;;;;;;;9.95;4.85;;;;;;;2.60;71.68;93422.94;5070741;28;20287;-89
2023/12/21 08:27:08;;;;;;;12.75;5.18;;;;;;;2.68;71.63;93428.69;5069136;28;20041;-89
2023/12/21 08:29:34;;;;;;;15.60;5.32;;;;;;;2.76;71.32;93414.94;5066998;28;20025;-89
2023/12/21 08:32:00;;;;;;;11.52;5.07;;;;;;;2.81;69.99;93417.56;5068101;28;20028;-88
2023/12/21 08:34:26;;;;;;;16.88;6.13;;;;;;;2.82;70.22;93427.00;5067587;28;20309;-89
2023/12/21 08:36:52;;;;;;;15.35;6.65;;;;;;;2.87;70.38;93437.50;5066266;28;20021;-89
2023/12/21 08:39:17;;;;;;;12.05;5.38;;;;;;;2.89;70.19;93430.13;5066590;28;20021;-89
2023/12/21 08:41:43;;;;;;;12.63;5.70;;;;;;;2.96;70.04;93430.59;5067555;28;20017;-89
2023/12/21 08:44:08;;;;;;;13.27;5.72;;;;;;;2.99;69.55;93427.41;5070119;28;20068;-88
2023/12/21 08:46:34;;;;;;;14.75;6.00;;;;;;;3.00;69.11;93428.19;5069577;28;20055;-88
2023/12/21 08:49:00;;;;;;;16.73;5.85;;;;;;;3.06;69.31;93418.41;5072990;28;20032;-89
2023/12/21 08:51:26;;;;;;;13.55;5.53;;;;;;;3.08;68.98;93411.03;5071766;28;20024;-88
2023/12/21 08:53:51;;;;;;;13.18;6.38;;;;;;;3.17;69.76;93407.50;5076452;28;20096;-89
2023/12/21 08:56:17;;;;;;;10.93;5.30;;;;;;;3.20;68.37;93419.34;5073548;28;20029;-89
2023/12/21 08:58:42;;;;;;;11.10;5.43;;;;;;;3.19;67.42;93413.25;5067431;28;20049;-85
2023/12/21 09:01:08;;;;;;;12.93;5.20;;;;;;;3.21;67.91;93405.09;5068138;28;20025;-86
2023/12/21 09:03:34;;;;;;;16.20;6.13;;;;;;;3.30;68.07;93410.56;5065211;28;20043;-83
2023/12/21 09:05:59;;;;;;;12.20;5.70;;;;;;;3.26;67.99;93398.97;5065231;28;20343;-83
2023/12/21 09:08:25;;;;;;;18.42;4.82;;;;;;;3.28;67.91;93388.97;5069310;28;20025;-83
2023/12/21 09:10:51;;;;;;;12.98;5.18;;;;;;;3.39;67.47;93375.41;5067487;28;20060;-84
2023/12/21 09:13:16;;;;;;;13.35;7.28;;;;;;;3.39;66.97;93379.91;5067444;28;20033;-83
2023/12/21 09:15:42;;;;;;;14.13;6.03;;;;;;;3.39;67.88;93385.94;5073228;28;20048;-86
2023/12/21 09:18:07;;;;;;;12.30;4.88;;;;;;;3.38;68.15;93379.13;5072046;28;20031;-82
2023/12/21 09:20:33;;;;;;;10.10;5.15;;;;;;;3.67;67.12;93374.88;5069581;28;20227;-80
2023/12/21 09:22:58;;;;;;;11.13;5.05;;;;;;;3.75;65.75;93367.13;5076612;28;20024;-87
2023/12/21 09:25:23;;;;;;;9.27;4.63;;;;;;;3.74;65.83;93368.16;5073016;28;20016;-83
2023/12/21 09:27:49;;;;;;;8.88;5.10;;;;;;;3.70;65.15;93376.94;5079341;28;20078;-89
2023/12/21 09:30:16;;;;;;;10.63;4.70;;;;;;;3.63;65.61;93369.38;5080265;28;20040;-91
2023/12/21 09:32:45;;;;;;;12.85;4.60;;;;;;;3.68;65.72;93360.59;5080212;28;20029;-89
2023/12/21 09:35:10;;;;;;;13.60;5.30;;;;;;;3.68;66.64;93350.06;5080463;28;20062;-91
2023/12/21 09:37:36;;;;;;;9.60;4.32;;;;;;;3.68;67.10;93350.84;5075692;28;20029;-89
2023/12/21 09:40:03;;;;;;;20.55;5.60;;;;;;;3.75;67.62;93367.13;5073393;28;20104;-87
2023/12/21 09:42:30;;;;;;;14.80;5.55;;;;;;;3.76;67.75;93350.22;5074491;28;20028;-86
2023/12/21 09:44:56;;;;;;;11.48;5.38;;;;;;;3.82;67.29;93354.38;5074240;28;20032;-87
2023/12/21 09:47:24;;;;;;;11.98;6.35;;;;;;;3.87;67.27;93342.19;5072122;28;20021;-81
2023/12/21 09:49:50;;;;;;;15.10;5.85;;;;;;;3.88;66.42;93338.50;5071414;28;20093;-82
2023/12/21 09:52:20;;;;;;;21.08;5.53;;;;;;;3.96;67.17;93332.59;5071238;28;20031;-83
2023/12/21 09:54:49;;;;;;;11.70;5.00;;;;;;;4.01;66.80;93330.66;5071927;28;20025;-85
2023/12/21 09:57:15;;;;;;;17.45;5.53;;;;;;;4.05;66.65;93322.97;5107450;28;20057;-84
2023/12/21 09:59:40;;;;;;;9.35;4.90;;;;;;;4.01;66.80;93306.16;5076344;28;20027;-82
2023/12/21 10:02:11;;;;;;;10.38;5.45;;;;;;;4.10;66.07;93316.84;5075224;28;20020;-82
2023/12/21 10:04:42;;;;;;;12.48;4.75;;;;;;;4.14;65.95;93317.84;5074848;28;20085;-84
2023/12/21 10:07:09;;;;;;;8.90;4.85;;;;;;;4.09;65.67;93302.88;5073393;28;20021;-84
2023/12/21 10:09:35;;;;;;;21.25;7.97;;;;;;;4.17;65.75;93309.34;5070867;28;20051;-84
2023/12/21 10:12:01;;;;;;;14.05;5.57;;;;;;;4.18;65.77;93300.38;5071980;28;20062;-83
2023/12/21 10:14:27;;;;;;;17.85;6.55;;;;;;;4.27;65.84;93289.94;5072524;28;20067;-83
2023/12/21 10:16:53;;;;;;;15.32;7.35;;;;;;;4.34;66.86;93279.84;5072293;28;20063;-82
2023/12/21 10:19:18;;;;;;;15.02;5.50;;;;;;;4.38;66.50;93278.97;5070495;28;20095;-82
2023/12/21 10:21:44;;;;;;;12.18;5.47;;;;;;;4.46;65.74;93288.06;5071735;28;20063;-82
2023/12/21 10:24:10;;;;;;;14.70;5.60;;;;;;;4.40;66.41;93278.69;5071939;28;20164;-83
2023/12/21 10:26:46;;;;;;;17.83;7.20;;;;;;;4.48;67.37;93271.94;5072297;28;20021;-87
2023/12/21 10:29:16;;;;;;;12.32;6.05;;;;;;;4.49;66.22;93270.88;5074607;28;20021;-86
2023/12/21 10:31:46;;;;;;;25.95;6.63;;;;;;;4.57;67.28;93260.44;5073095;28;20219;-85
2023/12/21 10:34:12;;;;;;;17.30;6.25;;;;;;;4.56;66.65;93264.16;5073113;28;20231;-84
2023/12/21 10:36:44;;;;;;;10.38;5.13;;;;;;;4.53;65.25;93246.25;5071917;28;20066;-84
2023/12/21 10:39:11;;;;;;;14.25;5.53;;;;;;;4.67;65.58;93248.16;5073126;28;20219;-85
2023/12/21 10:41:40;;;;;;;11.25;5.18;;;;;;;4.80;64.89;93253.47;5072030;28;20318;-84
2023/12/21 10:44:05;;;;;;;13.80;5.80;;;;;;;4.89;64.16;93245.63;5071738;28;20021;-85
2023/12/21 10:46:31;;;;;;;13.10;5.18;;;;;;;4.94;62.99;93242.88;5070358;28;20042;-85
2023/12/21 10:49:01;;;;;;;21.65;6.30;;;;;;;5.02;63.64;93238.78;5070483;28;20031;-86
2023/12/21 10:51:33;;;;;;;11.00;4.50;;;;;;;5.08;62.77;93236.84;5070175;28;20029;-85
2023/12/21 10:54:00;;;;;;;10.65;4.65;;;;;;;5.03;63.13;93235.88;5071386;28;20032;-86
2023/12/21 10:56:26;;;;;;;7.95;3.67;;;;;;;5.10;61.94;93229.41;5073726;28;20096;-86
2023/12/21 10:59:01;;;;;;;10.70;3.80;;;;;;;5.06;62.22;93221.28;5073409;28;20093;-86
2023/12/21 11:01:29;;;;;;;16.00;4.18;;;;;;;5.12;62.10;93206.91;5073845;28;20024;-87
2023/12/21 11:03:57;;;;;;;15.60;5.10;;;;;;;5.20;60.88;93203.56;5074473;28;20027;-84
2023/12/21 11:06:23;;;;;;;12.32;5.05;;;;;;;5.27;61.42;93195.25;5071977;28;20036;-83
2023/12/21 11:08:49;;;;;;;8.27;3.67;;;;;;;5.29;59.33;93193.09;5070941;28;20039;-85
2023/12/21 11:11:22;;;;;;;7.60;2.85;;;;;;;5.20;59.94;93186.94;5073779;28;20025;-87
2023/12/21 11:13:52;;;;;;;15.40;4.15;;;;;;;5.20;60.82;93195.63;5072699;28;20021;-86
2023/12/21 11:16:22;;;;;;;10.52;4.13;;;;;;;5.20;61.61;93205.44;5072849;28;20024;-86
2023/12/21 11:18:49;;;;;;;7.82;3.60;;;;;;;5.21;61.51;93199.06;5072211;28;20025;-86
2023/12/21 11:21:16;;;;;;;15.18;4.57;;;;;;;5.22;62.36;93193.47;5070450;28;20313;-85
2023/12/21 11:23:44;;;;;;;8.43;4.20;;;;;;;5.21;61.96;93185.84;5072105;28;20017;-86
2023/12/21 11:26:10;;;;;;;6.85;3.83;;;;;;;5.28;62.00;93188.88;5071906;28;20021;-86